Time;durP1;ratioP1;P1;durP2;ratioP2;P2;SDS_P1;SDS_P2;PMS_P1;PMS_P2;Temp;Humidity;BMP_temperature;BMP_pressure;BME280_temperature;BME280_humidity;BME280_pressure;Samples;Min_cycle;Max_cycle;Signal;HPM_P1;HPM_P2
2024/03/12 00:00:19;;;;;;;1.50;1.10;;;8.70;98.20;;;;;;6170116;23;20444;-83
2024/03/12 00:02:47;;;;;;;1.53;1.13;;;8.70;98.20;;;;;;6147681;23;20476;-82
2024/03/12 00:05:15;;;;;;;1.50;1.10;;;8.70;98.20;;;;;;6173483;23;20413;-82
2024/03/12 00:07:44;;;;;;;1.50;1.10;;;8.70;98.20;;;;;;6147824;23;20480;-83
2024/03/12 00:10:15;;;;;;;1.60;1.30;;;8.70;98.20;;;;;;6171364;23;20452;-83
2024/03/12 00:12:47;;;;;;;1.50;1.10;;;8.60;98.20;;;;;;6144828;23;20479;-83
2024/03/12 00:15:18;;;;;;;1.60;1.30;;;8.60;98.20;;;;;;6170412;23;20424;-82
2024/03/12 00:17:45;;;;;;;1.50;1.10;;;8.60;98.20;;;;;;6145306;23;20523;-82
2024/03/12 00:20:24;;;;;;;1.57;1.20;;;8.60;98.20;;;;;;6171242;23;21016;-83
2024/03/12 00:22:52;;;;;;;1.57;1.20;;;8.60;98.20;;;;;;6144779;23;20459;-82
2024/03/12 00:25:21;;;;;;;1.50;1.10;;;8.60;98.20;;;;;;6161074;23;20540;-83
2024/03/12 00:27:50;;;;;;;1.50;1.20;;;8.60;98.20;;;;;;6143712;23;20521;-83
2024/03/12 00:30:18;;;;;;;1.50;1.10;;;8.60;98.20;;;;;;6170124;23;20459;-83
2024/03/12 00:32:47;;;;;;;1.50;1.10;;;8.60;98.20;;;;;;6144538;23;21015;-82
2024/03/12 00:35:15;;;;;;;1.50;1.10;;;8.60;98.20;;;;;;6161081;23;20425;-83
2024/03/12 00:37:42;;;;;;;1.50;1.10;;;8.60;98.20;;;;;;6145266;23;20449;-82
2024/03/12 00:40:11;;;;;;;1.53;1.20;;;8.60;98.20;;;;;;6160068;23;20444;-82
2024/03/12 00:42:39;;;;;;;1.57;1.13;;;8.60;98.20;;;;;;6145158;23;20455;-81
2024/03/12 00:45:11;;;;;;;1.50;1.10;;;8.60;98.20;;;;;;6159868;23;20448;-82
2024/03/12 00:47:38;;;;;;;1.57;1.10;;;8.70;98.20;;;;;;6144743;23;20444;-82
2024/03/12 00:50:07;;;;;;;1.50;1.10;;;8.70;98.20;;;;;;6160919;23;20512;-82
2024/03/12 00:52:34;;;;;;;1.50;1.10;;;8.70;98.20;;;;;;6144645;23;21096;-83
2024/03/12 00:55:04;;;;;;;1.50;1.10;;;8.70;98.20;;;;;;6161236;23;20764;-83
2024/03/12 00:57:31;;;;;;;1.50;1.10;;;8.60;98.20;;;;;;6145436;23;20456;-83
2024/03/12 00:59:58;;;;;;;1.50;1.10;;;8.60;98.20;;;;;;6161002;23;20437;-83
2024/03/12 01:02:30;;;;;;;1.50;1.10;;;8.70;98.20;;;;;;6144668;23;20540;-83
2024/03/12 01:04:57;;;;;;;1.50;1.10;;;8.60;98.20;;;;;;6158979;23;20459;-84
2024/03/12 01:07:25;;;;;;;1.50;1.20;;;8.60;98.20;;;;;;6143651;23;20451;-83
2024/03/12 01:09:52;;;;;;;1.60;1.27;;;8.60;98.20;;;;;;6159424;23;20510;-83
2024/03/12 01:12:19;;;;;;;1.50;1.10;;;8.60;98.20;;;;;;6143420;23;20449;-83
2024/03/12 01:14:47;;;;;;;1.50;1.07;;;8.60;98.20;;;;;;6159854;23;20488;-83
2024/03/12 01:17:14;;;;;;;1.50;1.10;;;8.60;98.20;;;;;;6144330;23;20508;-83
2024/03/12 01:19:42;;;;;;;1.50;1.20;;;8.60;98.20;;;;;;6158988;23;20436;-83
2024/03/12 01:22:12;;;;;;;1.50;1.10;;;8.70;98.20;;;;;;6143972;23;20527;-83
2024/03/12 01:24:42;;;;;;;1.53;1.10;;;8.60;98.20;;;;;;6160086;23;20441;-83
2024/03/12 01:27:13;;;;;;;1.50;1.10;;;8.70;98.20;;;;;;6144590;23;20441;-83
2024/03/12 01:29:40;;;;;;;1.50;1.10;;;8.70;98.20;;;;;;6159304;23;20479;-83
2024/03/12 01:32:09;;;;;;;1.50;1.10;;;8.70;98.20;;;;;;6147695;23;20455;-83
2024/03/12 01:34:36;;;;;;;1.50;1.10;;;8.60;98.20;;;;;;6168461;23;20941;-84
2024/03/12 01:37:06;;;;;;;1.50;1.20;;;8.60;98.20;;;;;;6144138;23;20472;-83
2024/03/12 01:39:38;;;;;;;1.50;1.10;;;8.60;98.20;;;;;;6167736;23;20468;-83
2024/03/12 01:42:06;;;;;;;1.50;1.20;;;8.60;98.20;;;;;;6140248;23;20448;-83
2024/03/12 01:44:34;;;;;;;1.50;1.10;;;8.60;98.20;;;;;;6157333;23;20425;-84
2024/03/12 01:47:08;;;;;;;1.50;1.10;;;8.60;98.20;;;;;;6142182;23;20783;-83
2024/03/12 01:49:36;;;;;;;1.50;1.10;;;8.60;98.20;;;;;;6169141;23;20465;-84
2024/03/12 01:52:04;;;;;;;1.50;1.10;;;8.60;98.20;;;;;;6143072;23;20459;-84
2024/03/12 01:54:32;;;;;;;1.53;1.10;;;8.60;98.20;;;;;;6169157;23;20417;-83
2024/03/12 01:56:59;;;;;;;1.57;1.30;;;8.60;98.20;;;;;;6149257;23;20865;-84
2024/03/12 01:59:26;;;;;;;1.53;1.20;;;8.60;98.20;;;;;;6159664;23;20436;-84
2024/03/12 02:01:59;;;;;;;1.53;1.20;;;8.60;98.20;;;;;;6142871;23;20512;-85
2024/03/12 02:04:26;;;;;;;1.50;1.10;;;8.60;98.20;;;;;;6169111;23;20436;-83
2024/03/12 02:06:53;;;;;;;1.50;1.10;;;8.60;98.20;;;;;;6138138;23;21320;-84
2024/03/12 02:09:23;;;;;;;1.50;1.10;;;8.50;98.20;;;;;;6158126;23;20505;-84
2024/03/12 02:11:50;;;;;;;1.53;1.10;;;8.50;98.20;;;;;;6145141;23;20456;-85
2024/03/12 02:14:45;;;;;;;1.50;1.10;;;8.50;98.20;;;;;;6170964;23;20425;-86
2024/03/12 02:17:14;;;;;;;1.53;1.20;;;8.50;98.20;;;;;;6150943;23;20552;-86
2024/03/12 02:19:41;;;;;;;1.50;1.20;;;8.50;98.20;;;;;;6170999;23;20509;-85
2024/03/12 02:22:09;;;;;;;1.50;1.17;;;8.50;98.20;;;;;;6150832;23;20452;-85
2024/03/12 02:24:39;;;;;;;1.53;1.20;;;8.50;98.20;;;;;;6161759;23;20427;-86
2024/03/12 02:27:06;;;;;;;1.53;1.27;;;8.50;98.20;;;;;;6145349;23;20445;-85
2024/03/12 02:29:33;;;;;;;1.53;1.20;;;8.50;98.20;;;;;;6160233;23;20448;-86
2024/03/12 02:32:00;;;;;;;1.50;1.10;;;8.50;98.20;;;;;;6146073;23;20838;-85
2024/03/12 02:34:29;;;;;;;1.63;1.40;;;8.50;98.20;;;;;;6161339;23;20489;-85
2024/03/12 02:36:56;;;;;;;1.50;1.10;;;8.50;98.20;;;;;;6154160;23;20472;-83
2024/03/12 02:39:24;;;;;;;1.50;1.23;;;8.50;98.20;;;;;;6161826;23;20464;-84
2024/03/12 02:41:52;;;;;;;1.53;1.20;;;8.50;98.20;;;;;;6148846;23;20452;-84
2024/03/12 02:44:21;;;;;;;1.50;1.20;;;8.50;98.20;;;;;;6161722;23;20436;-84
2024/03/12 02:46:49;;;;;;;1.50;1.20;;;8.50;98.20;;;;;;6145918;23;20751;-85
2024/03/12 02:49:16;;;;;;;1.50;1.10;;;8.50;98.20;;;;;;6160769;23;20420;-86
2024/03/12 02:51:45;;;;;;;1.50;1.10;;;8.50;98.20;;;;;;6144490;23;20517;-84
2024/03/12 02:54:13;;;;;;;1.57;1.20;;;8.50;98.20;;;;;;6161412;23;20416;-84
2024/03/12 02:56:40;;;;;;;1.57;1.10;;;8.50;98.20;;;;;;6146352;23;20476;-87
2024/03/12 02:59:11;;;;;;;1.50;1.20;;;8.50;98.20;;;;;;6169708;23;20533;-85
2024/03/12 03:01:41;;;;;;;1.60;1.20;;;8.50;98.20;;;;;;6151505;23;20455;-84
2024/03/12 03:04:09;;;;;;;1.53;1.10;;;8.50;98.20;;;;;;6161702;23;20511;-84
2024/03/12 03:06:35;;;;;;;1.60;1.30;;;8.50;98.20;;;;;;6147006;23;20452;-83
2024/03/12 03:09:06;;;;;;;1.50;1.20;;;8.50;98.20;;;;;;6172841;23;20451;-84
2024/03/12 03:11:33;;;;;;;1.50;1.10;;;8.50;98.20;;;;;;6147367;23;20455;-84
2024/03/12 03:14:00;;;;;;;1.60;1.50;;;8.50;98.20;;;;;;6162604;23;20417;-84
2024/03/12 03:16:33;;;;;;;1.50;1.10;;;8.50;98.20;;;;;;6149066;23;20448;-86
2024/03/12 03:18:59;;;;;;;1.50;1.10;;;8.40;98.20;;;;;;6163388;23;20432;-85
2024/03/12 03:21:26;;;;;;;1.50;1.20;;;8.40;98.20;;;;;;6148489;23;20449;-86
2024/03/12 03:23:54;;;;;;;1.53;1.20;;;8.40;98.20;;;;;;6176053;23;20433;-86
2024/03/12 03:26:22;;;;;;;1.50;1.20;;;8.40;98.20;;;;;;6159651;23;20455;-84
2024/03/12 03:28:55;;;;;;;1.50;1.10;;;8.40;98.20;;;;;;6177045;23;20445;-85
2024/03/12 03:31:22;;;;;;;1.50;1.13;;;8.40;98.20;;;;;;6160322;23;20456;-87
2024/03/12 03:33:50;;;;;;;1.50;1.20;;;8.40;98.20;;;;;;6163135;23;20425;-87
2024/03/12 03:36:17;;;;;;;1.50;1.10;;;8.40;98.20;;;;;;6149510;23;20872;-84
2024/03/12 03:38:51;;;;;;;1.50;1.10;;;8.40;98.20;;;;;;6168116;23;20484;-87
2024/03/12 03:41:22;;;;;;;1.50;1.10;;;8.40;98.20;;;;;;6162834;23;20453;-86
2024/03/12 03:43:52;;;;;;;1.50;1.10;;;8.40;98.20;;;;;;6178894;23;20428;-87
2024/03/12 03:46:58;;;;;;;1.50;1.10;;;8.30;98.20;;;;;;6124711;23;20517;-86
2024/03/12 03:50:05;;;;;;;1.53;1.10;;;8.30;98.20;;;;;;6158993;23;20476;-87
2024/03/12 03:52:33;;;;;;;1.53;1.20;;;8.30;98.20;;;;;;6155865;23;20445;-86
2024/03/12 03:55:01;;;;;;;1.53;1.10;;;8.30;98.20;;;;;;6143932;23;20412;-87
2024/03/12 03:57:31;;;;;;;1.50;1.20;;;8.30;98.20;;;;;;6154999;23;20440;-87
2024/03/12 04:00:12;;;;;;;1.50;1.20;;;8.30;98.20;;;;;;6177185;23;20444;-84
2024/03/12 04:02:41;;;;;;;1.57;1.20;;;8.30;98.20;;;;;;6149021;23;20812;-86
2024/03/12 04:05:11;;;;;;;1.50;1.10;;;8.20;98.20;;;;;;6163552;23;20424;-86
2024/03/12 04:07:40;;;;;;;1.50;1.10;;;8.20;98.20;;;;;;6146644;23;20452;-85
2024/03/12 04:10:10;;;;;;;1.50;1.10;;;8.20;98.20;;;;;;6174366;23;20444;-85
2024/03/12 04:12:39;;;;;;;1.57;1.20;;;8.20;98.20;;;;;;6150541;23;20444;-86
2024/03/12 04:15:07;;;;;;;1.50;1.10;;;8.20;98.20;;;;;;6175478;23;20421;-85
2024/03/12 04:17:38;;;;;;;1.50;1.10;;;8.20;98.20;;;;;;6151487;23;21100;-85
2024/03/12 04:20:09;;;;;;;1.50;1.20;;;8.20;98.20;;;;;;6173603;23;20449;-86
2024/03/12 04:22:45;;;;;;;1.53;1.20;;;8.20;98.20;;;;;;6128044;23;20452;-84
2024/03/12 04:25:13;;;;;;;1.50;1.20;;;8.10;98.20;;;;;;6174558;23;20409;-87
2024/03/12 04:27:40;;;;;;;1.57;1.20;;;8.10;98.20;;;;;;6147566;23;20464;-85
2024/03/12 04:30:09;;;;;;;1.50;1.20;;;8.10;98.20;;;;;;6163961;23;20505;-86
2024/03/12 04:32:36;;;;;;;1.50;1.20;;;8.10;98.20;;;;;;6147086;23;20883;-87
2024/03/12 04:35:04;;;;;;;1.53;1.20;;;8.10;98.20;;;;;;6173799;23;20424;-85
2024/03/12 04:37:32;;;;;;;1.50;1.10;;;8.10;98.20;;;;;;6152157;23;20449;-86
2024/03/12 04:40:07;;;;;;;1.50;1.20;;;8.20;98.20;;;;;;6163853;23;20810;-85
2024/03/12 04:42:35;;;;;;;1.53;1.20;;;8.20;98.20;;;;;;6152116;23;21150;-86
2024/03/12 04:45:04;;;;;;;1.50;1.10;;;8.10;98.20;;;;;;6175152;23;20423;-85
2024/03/12 04:47:31;;;;;;;1.50;1.20;;;8.20;98.20;;;;;;6151482;23;20468;-86
2024/03/12 04:50:00;;;;;;;1.50;1.20;;;8.10;98.20;;;;;;6163056;23;21024;-85
2024/03/12 04:52:26;;;;;;;1.50;1.10;;;8.10;98.20;;;;;;6146908;23;20453;-88
2024/03/12 04:54:53;;;;;;;1.60;1.20;;;8.20;98.20;;;;;;6163983;23;20424;-84
2024/03/12 04:57:23;;;;;;;1.50;1.30;;;8.10;98.20;;;;;;6147781;23;20460;-85
2024/03/12 04:59:50;;;;;;;1.53;1.10;;;8.10;98.20;;;;;;6174208;23;20472;-87
2024/03/12 05:02:17;;;;;;;1.53;1.20;;;8.10;98.20;;;;;;6151005;23;20449;-86
2024/03/12 05:04:55;;;;;;;1.60;1.30;;;8.10;98.20;;;;;;6162836;23;20485;-87
2024/03/12 05:07:22;;;;;;;1.57;1.20;;;8.10;98.20;;;;;;6147600;23;20512;-86
2024/03/12 05:09:49;;;;;;;1.50;1.20;;;8.10;98.20;;;;;;6162424;23;20881;-85
2024/03/12 05:12:20;;;;;;;1.60;1.30;;;8.10;98.20;;;;;;6150461;23;21020;-85
2024/03/12 05:14:51;;;;;;;1.50;1.10;;;8.10;98.20;;;;;;6162847;23;20489;-85
2024/03/12 05:17:20;;;;;;;1.50;1.13;;;8.10;98.20;;;;;;6151825;23;20455;-84
2024/03/12 05:19:50;;;;;;;1.50;1.10;;;8.10;98.20;;;;;;6172674;23;20441;-85
2024/03/12 05:25:39;;;;;;;1.53;1.13;;;8.10;98.20;;;;;;6169610;23;20487;-84
2024/03/12 05:28:08;;;;;;;1.50;1.20;;;8.10;98.20;;;;;;6147945;23;20495;-85
2024/03/12 05:30:40;;;;;;;1.53;1.10;;;8.10;98.20;;;;;;6162147;23;20725;-85
2024/03/12 05:33:09;;;;;;;1.50;1.20;;;8.10;98.20;;;;;;6146733;23;20945;-87
2024/03/12 05:35:38;;;;;;;1.60;1.40;;;8.10;98.20;;;;;;6174422;23;20450;-86
2024/03/12 05:38:22;;;;;;;1.50;1.10;;;8.10;98.20;;;;;;6148037;23;20449;-85
2024/03/12 05:41:14;;;;;;;1.50;1.10;;;8.10;98.20;;;;;;6157863;23;20444;-86
2024/03/12 05:49:32;;;;;;;1.60;1.37;;;8.10;98.20;;;;;;6158913;23;20453;-85
2024/03/12 05:51:59;;;;;;;1.53;1.20;;;8.10;98.20;;;;;;6144840;23;20448;-83
2024/03/12 05:54:26;;;;;;;1.50;1.20;;;8.10;98.20;;;;;;6171280;23;20492;-86
2024/03/12 05:56:53;;;;;;;1.60;1.20;;;8.10;98.20;;;;;;6144644;23;20448;-86
2024/03/12 05:59:28;;;;;;;1.53;1.20;;;8.10;98.20;;;;;;6172083;23;20441;-85
2024/03/12 06:02:31;;;;;;;1.60;1.20;;;8.10;98.20;;;;;;6151004;23;20532;-86
2024/03/12 06:04:57;;;;;;;1.53;1.20;;;8.10;98.20;;;;;;6171645;23;20483;-84
2024/03/12 06:07:24;;;;;;;2.33;2.13;;;8.10;98.20;;;;;;6146084;23;20468;-85
2024/03/12 06:09:52;;;;;;;1.50;1.10;;;8.10;98.20;;;;;;6163027;23;20808;-86
2024/03/12 06:12:19;;;;;;;1.50;1.10;;;8.10;98.20;;;;;;6145423;23;20515;-86
2024/03/12 06:14:48;;;;;;;1.50;1.20;;;8.00;98.20;;;;;;6166925;23;20779;-86
2024/03/12 06:17:25;;;;;;;1.50;1.20;;;8.10;98.20;;;;;;6148188;23;20456;-85
2024/03/12 06:23:22;;;;;;;1.57;1.20;;;8.10;98.20;;;;;;6058319;23;20464;-85
2024/03/12 06:25:53;;;;;;;1.60;1.20;;;8.10;98.20;;;;;;6140727;23;20421;-82
2024/03/12 06:28:21;;;;;;;1.50;1.20;;;8.10;98.20;;;;;;6165251;23;20449;-83
2024/03/12 06:30:48;;;;;;;1.50;1.20;;;8.10;98.20;;;;;;6151932;23;20444;-83
2024/03/12 06:35:57;;;;;;;1.50;1.20;;;8.10;98.20;;;;;;6125311;23;20467;-82
2024/03/12 06:38:30;;;;;;;1.50;1.20;;;8.10;98.20;;;;;;6164599;23;20475;-83
2024/03/12 06:40:57;;;;;;;1.50;1.17;;;8.10;98.20;;;;;;6149326;23;20457;-85
2024/03/12 06:43:31;;;;;;;1.50;1.23;;;8.10;98.20;;;;;;6163615;23;20672;-82
2024/03/12 06:46:19;;;;;;;1.60;1.30;;;8.10;98.20;;;;;;6149291;23;20775;-82
2024/03/12 06:48:52;;;;;;;1.50;1.20;;;8.10;98.20;;;;;;6164498;23;20444;-83
2024/03/12 06:51:22;;;;;;;1.53;1.20;;;8.10;98.20;;;;;;6147064;23;20492;-85
2024/03/12 06:53:50;;;;;;;5.57;1.73;;;8.10;98.20;;;;;;6158153;23;20436;-86
2024/03/12 06:56:22;;;;;;;1.57;1.30;;;8.10;98.20;;;;;;6149887;23;20445;-86
2024/03/12 06:59:07;;;;;;;1.60;1.30;;;8.10;98.20;;;;;;6168445;23;20409;-86
2024/03/12 07:01:40;;;;;;;1.60;1.40;;;8.10;98.20;;;;;;6149583;23;20942;-86
2024/03/12 07:04:16;;;;;;;1.57;1.20;;;8.10;98.20;;;;;;6165600;23;20435;-84
2024/03/12 07:06:51;;;;;;;1.50;1.20;;;8.20;98.20;;;;;;6139282;23;20454;-84
2024/03/12 07:09:27;;;;;;;1.50;1.20;;;8.20;98.20;;;;;;6155161;23;20455;-83
2024/03/12 07:12:00;;;;;;;1.50;1.20;;;8.20;98.20;;;;;;6145272;23;20453;-85
2024/03/12 07:14:29;;;;;;;1.50;1.20;;;8.10;98.20;;;;;;6165346;23;20441;-85
2024/03/12 07:17:07;;;;;;;1.50;1.10;;;8.20;98.20;;;;;;6144579;23;20460;-85
2024/03/12 07:19:59;;;;;;;1.50;1.20;;;8.20;98.20;;;;;;6164278;23;20468;-85
2024/03/12 07:22:42;;;;;;;1.57;1.20;;;8.20;98.20;;;;;;6120557;23;20449;-85
2024/03/12 07:25:11;;;;;;;1.53;1.17;;;8.20;98.20;;;;;;6159030;23;20430;-85
2024/03/12 07:28:21;;;;;;;1.50;1.10;;;8.20;98.20;;;;;;6133058;23;20476;-85
2024/03/12 07:30:59;;;;;;;1.60;1.30;;;8.20;98.20;;;;;;6140996;23;20467;-86
2024/03/12 07:33:49;;;;;;;1.53;1.20;;;8.20;98.20;;;;;;6155678;23;20424;-87
2024/03/12 07:36:42;;;;;;;1.50;1.10;;;8.20;98.20;;;;;;6137662;23;20453;-87
2024/03/12 07:42:54;;;;;;;1.50;1.10;;;8.20;98.20;;;;;;6110595;23;20473;-86
2024/03/12 07:45:46;;;;;;;1.50;1.20;;;8.20;98.20;;;;;;6127695;23;20852;-84
2024/03/12 07:51:02;;;;;;;1.50;1.10;;;8.20;98.20;;;;;;6104610;23;20522;-82
2024/03/12 07:53:29;;;;;;;1.57;1.20;;;8.20;98.20;;;;;;6133563;23;20425;-82
2024/03/12 07:56:05;;;;;;;1.50;1.20;;;8.20;98.20;;;;;;6116890;23;20464;-84
2024/03/12 07:58:57;;;;;;;1.50;1.10;;;8.20;98.20;;;;;;6140158;23;20843;-83
2024/03/12 08:01:31;;;;;;;1.53;1.10;;;8.20;98.20;;;;;;5977572;23;20461;-84
2024/03/12 08:03:58;;;;;;;3.90;2.20;;;8.20;98.20;;;;;;6128363;23;20476;-86
2024/03/12 08:06:25;;;;;;;1.50;1.10;;;8.20;98.20;;;;;;6122791;23;20445;-87
2024/03/12 08:08:54;;;;;;;1.50;1.10;;;8.20;98.20;;;;;;6136090;23;20449;-86
2024/03/12 08:11:21;;;;;;;1.57;1.20;;;8.20;98.20;;;;;;6120365;23;20520;-85
2024/03/12 08:13:48;;;;;;;1.53;1.20;;;8.30;98.20;;;;;;6136211;23;20930;-84
2024/03/12 08:16:16;;;;;;;1.60;1.20;;;8.30;98.20;;;;;;6113636;23;20460;-87
2024/03/12 08:18:55;;;;;;;1.60;1.30;;;8.30;98.20;;;;;;6128721;23;20517;-85
2024/03/12 08:24:50;;;;;;;1.53;1.17;;;8.30;98.20;;;;;;5991798;24;20451;-85
2024/03/12 08:27:18;;;;;;;1.53;1.20;;;8.30;98.20;;;;;;6083494;23;20539;-89
2024/03/12 08:29:45;;;;;;;1.50;1.13;;;8.30;98.20;;;;;;6136654;23;20453;-86
2024/03/12 08:32:14;;;;;;;1.57;1.20;;;8.30;98.20;;;;;;6114180;23;20453;-85
2024/03/12 08:34:41;;;;;;;1.53;1.20;;;8.30;98.20;;;;;;6128153;23;20422;-86
2024/03/12 08:37:36;;;;;;;1.57;1.13;;;8.30;98.20;;;;;;6087827;23;20516;-85
2024/03/12 08:40:03;;;;;;;1.57;1.10;;;8.40;98.20;;;;;;6132234;23;20922;-84
2024/03/12 08:42:30;;;;;;;1.53;1.20;;;8.40;98.20;;;;;;6134089;23;20604;-84
2024/03/12 08:44:58;;;;;;;1.50;1.10;;;8.40;98.20;;;;;;6153289;23;20421;-85
2024/03/12 08:47:27;;;;;;;2.53;2.33;;;8.40;98.20;;;;;;6137746;23;20453;-86
2024/03/12 08:49:54;;;;;;;1.57;1.20;;;8.40;98.20;;;;;;6153970;23;20491;-86
2024/03/12 08:52:21;;;;;;;1.60;1.30;;;8.40;98.20;;;;;;6142045;23;20458;-84
2024/03/12 08:54:48;;;;;;;1.50;1.10;;;8.40;98.20;;;;;;6163838;23;20527;-86
2024/03/12 08:57:15;;;;;;;1.50;1.10;;;8.50;98.20;;;;;;6139148;23;20479;-86
2024/03/12 08:59:42;;;;;;;1.50;1.17;;;8.50;98.20;;;;;;6162790;23;20489;-84
2024/03/12 09:02:12;;;;;;;1.57;1.20;;;8.60;98.20;;;;;;6140796;23;20491;-85
2024/03/12 09:04:40;;;;;;;1.50;1.10;;;8.60;98.20;;;;;;6165253;23;20428;-84
2024/03/12 09:07:08;;;;;;;1.53;1.10;;;8.60;98.20;;;;;;6139276;23;20452;-86
2024/03/12 09:09:44;;;;;;;1.53;1.20;;;8.70;98.20;;;;;;6165308;23;20453;-86
2024/03/12 09:12:13;;;;;;;1.50;1.10;;;8.80;98.20;;;;;;6141283;23;20452;-86
2024/03/12 09:14:42;;;;;;;1.50;1.10;;;8.80;98.20;;;;;;6166904;23;20413;-86
2024/03/12 09:17:13;;;;;;;1.60;1.20;;;8.90;98.20;;;;;;6144515;23;20453;-87
2024/03/12 09:19:43;;;;;;;1.50;1.10;;;9.00;98.20;;;;;;6157800;23;20496;-85
2024/03/12 09:22:54;;;;;;;1.53;1.10;;;9.00;98.20;;;;;;6126156;23;20446;-85
2024/03/12 09:25:23;;;;;;;1.57;1.20;;;9.10;98.20;;;;;;6155627;23;20435;-86
2024/03/12 09:27:50;;;;;;;1.93;1.73;;;9.10;98.20;;;;;;6138465;23;20912;-86
2024/03/12 09:30:18;;;;;;;1.50;1.10;;;9.10;98.20;;;;;;6153408;23;20519;-86
2024/03/12 09:32:50;;;;;;;1.50;1.13;;;9.10;98.20;;;;;;6135468;23;20524;-84
2024/03/12 09:38:39;;;;;;;1.60;1.20;;;9.00;98.20;;;;;;6117507;23;20448;-85
2024/03/12 09:41:09;;;;;;;1.50;1.10;;;9.10;98.20;;;;;;6141161;23;20442;-86
2024/03/12 09:43:39;;;;;;;1.50;1.10;;;9.00;98.20;;;;;;6155527;23;20489;-86
2024/03/12 09:46:06;;;;;;;1.50;1.10;;;9.00;98.20;;;;;;6147513;23;20421;-85
2024/03/12 09:48:38;;;;;;;1.53;1.10;;;9.00;98.20;;;;;;6165105;23;20417;-86
2024/03/12 09:51:12;;;;;;;1.53;1.10;;;9.00;98.20;;;;;;6146823;23;20463;-86
2024/03/12 09:53:42;;;;;;;1.50;1.10;;;9.00;98.20;;;;;;6164160;23;20452;-86
2024/03/12 09:56:15;;;;;;;1.57;1.10;;;9.00;98.20;;;;;;6148101;23;20733;-83
2024/03/12 09:58:43;;;;;;;1.57;1.20;;;9.00;98.20;;;;;;6164934;23;20532;-85
2024/03/12 10:01:28;;;;;;;1.57;1.20;;;9.00;98.20;;;;;;6140305;23;20534;-85
2024/03/12 10:03:55;;;;;;;1.50;1.20;;;9.00;98.20;;;;;;6160398;23;20429;-83
2024/03/12 10:06:25;;;;;;;1.50;1.10;;;9.00;98.20;;;;;;6138736;23;20453;-84
2024/03/12 10:08:58;;;;;;;1.50;1.20;;;9.00;98.20;;;;;;6163647;23;20421;-86
2024/03/12 10:11:25;;;;;;;1.50;1.10;;;9.00;98.20;;;;;;6139133;23;20535;-86
2024/03/12 10:14:01;;;;;;;1.60;1.37;;;9.00;98.20;;;;;;6160425;23;20448;-85
2024/03/12 10:16:32;;;;;;;1.50;1.10;;;9.00;98.20;;;;;;6141227;23;20467;-87
2024/03/12 10:19:14;;;;;;;1.50;1.20;;;9.10;98.20;;;;;;6167023;23;20421;-86
2024/03/12 10:22:08;;;;;;;1.60;1.20;;;9.10;98.20;;;;;;6136541;23;20444;-84
2024/03/12 10:24:39;;;;;;;1.50;1.10;;;9.10;98.20;;;;;;6157570;23;20429;-85
2024/03/12 10:27:15;;;;;;;1.50;1.10;;;9.10;98.20;;;;;;6143651;23;20525;-84
2024/03/12 10:29:59;;;;;;;1.50;1.10;;;9.20;98.20;;;;;;6153663;23;20452;-85
2024/03/12 10:32:34;;;;;;;1.50;1.10;;;9.20;98.20;;;;;;6144140;23;20452;-84
2024/03/12 10:38:49;;;;;;;1.50;1.17;;;9.20;98.20;;;;;;6146404;23;20492;-85
2024/03/12 10:41:18;;;;;;;1.50;1.10;;;9.20;98.20;;;;;;6143974;23;20496;-85
2024/03/12 10:43:47;;;;;;;1.50;1.20;;;9.20;98.20;;;;;;6149294;23;20468;-85
2024/03/12 10:46:14;;;;;;;1.53;1.10;;;9.30;98.20;;;;;;6141760;23;20448;-85
2024/03/12 10:48:46;;;;;;;1.50;1.10;;;9.30;98.20;;;;;;6163200;23;20413;-85
2024/03/12 10:51:14;;;;;;;1.53;1.10;;;9.40;98.20;;;;;;6144185;23;20456;-85
2024/03/12 10:53:49;;;;;;;1.50;1.00;;;9.50;98.20;;;;;;6154477;23;20431;-87
2024/03/12 10:56:29;;;;;;;1.50;1.00;;;9.60;98.20;;;;;;6149897;23;21085;-86
2024/03/12 10:58:57;;;;;;;1.50;1.10;;;9.60;98.20;;;;;;6165082;23;20428;-87
2024/03/12 11:01:43;;;;;;;1.57;1.10;;;9.70;98.20;;;;;;6145585;23;20477;-87
2024/03/12 11:04:10;;;;;;;1.57;1.10;;;9.80;98.20;;;;;;6163593;23;21086;-84
2024/03/12 11:06:38;;;;;;;1.50;1.00;;;9.80;98.20;;;;;;6154589;23;20424;-85
2024/03/12 11:09:11;;;;;;;1.50;1.10;;;9.90;98.20;;;;;;6155794;23;20429;-86
2024/03/12 11:11:52;;;;;;;1.50;1.10;;;9.90;98.20;;;;;;6143515;23;20453;-83
2024/03/12 11:14:36;;;;;;;1.50;1.13;;;9.90;98.20;;;;;;6146583;23;20434;-85
2024/03/12 11:17:24;;;;;;;3.10;2.90;;;9.80;98.20;;;;;;6130317;23;20954;-84
2024/03/12 11:23:45;;;;;;;1.57;1.10;;;9.80;98.20;;;;;;6037170;23;20416;-84
2024/03/12 11:26:15;;;;;;;1.57;1.10;;;9.90;98.20;;;;;;6021628;23;20454;-83
2024/03/12 11:28:51;;;;;;;1.70;1.40;;;9.90;98.20;;;;;;6099288;23;20475;-85
2024/03/12 11:31:23;;;;;;;1.60;1.47;;;9.80;98.20;;;;;;6143255;23;20861;-84
2024/03/12 11:33:55;;;;;;;1.50;1.10;;;9.90;98.20;;;;;;6158714;23;20419;-84
2024/03/12 11:36:45;;;;;;;1.57;1.10;;;9.80;98.20;;;;;;6139226;23;20419;-83
2024/03/12 11:39:15;;;;;;;1.50;1.10;;;9.80;98.20;;;;;;6164309;23;20729;-84
2024/03/12 11:42:22;;;;;;;1.60;1.23;;;9.80;98.20;;;;;;6140210;23;20707;-85
2024/03/12 11:44:54;;;;;;;1.50;1.10;;;9.80;98.20;;;;;;6134154;23;20431;-88
2024/03/12 11:47:44;;;;;;;1.50;1.20;;;9.80;98.20;;;;;;6143287;23;20456;-87
2024/03/12 11:50:33;;;;;;;1.50;1.10;;;9.80;98.20;;;;;;6156124;23;20456;-86
2024/03/12 11:53:18;;;;;;;1.50;1.00;;;9.90;98.20;;;;;;6143318;23;20448;-85
2024/03/12 11:55:58;;;;;;;1.60;1.20;;;9.90;98.20;;;;;;6167460;23;20495;-85
2024/03/12 11:58:30;;;;;;;1.53;1.10;;;9.90;98.20;;;;;;6116884;23;20778;-85
2024/03/12 12:01:02;;;;;;;1.50;1.10;;;9.90;98.20;;;;;;6153290;23;20429;-85
2024/03/12 12:03:49;;;;;;;1.50;1.10;;;9.90;98.20;;;;;;6167563;23;20793;-87
2024/03/12 12:06:19;;;;;;;1.57;1.10;;;9.90;98.20;;;;;;6148334;23;20480;-86
2024/03/12 12:08:47;;;;;;;1.50;1.10;;;10.00;98.20;;;;;;6157914;23;20417;-87
2024/03/12 12:11:17;;;;;;;1.60;1.20;;;10.00;98.20;;;;;;6143611;23;20460;-85
2024/03/12 12:13:46;;;;;;;1.50;1.10;;;10.10;98.20;;;;;;6156185;23;20941;-84
2024/03/12 12:16:18;;;;;;;1.57;1.10;;;10.30;98.20;;;;;;6133339;23;20479;-83
2024/03/12 12:18:47;;;;;;;1.50;1.00;;;10.50;98.20;;;;;;6129734;23;20453;-83
2024/03/12 12:21:16;;;;;;;1.50;1.00;;;10.90;98.20;;;;;;6104389;23;20456;-83
2024/03/12 12:23:44;;;;;;;1.50;1.07;;;11.10;98.20;;;;;;6129053;23;20428;-82
2024/03/12 12:26:22;;;;;;;1.50;1.00;;;11.30;98.20;;;;;;6118292;23;20494;-84
2024/03/12 12:28:58;;;;;;;1.50;1.00;;;11.50;98.20;;;;;;6124662;23;20684;-84
2024/03/12 12:31:41;;;;;;;2.10;1.83;;;11.60;98.20;;;;;;6117960;23;21142;-82
2024/03/12 12:40:17;;;;;;;1.53;1.00;;;11.70;98.20;;;;;;6046485;23;20682;-83
2024/03/12 12:42:46;;;;;;;1.53;1.10;;;11.70;98.20;;;;;;6105645;23;20488;-82
2024/03/12 12:45:19;;;;;;;1.50;1.00;;;11.60;98.20;;;;;;6134784;23;20835;-82
2024/03/12 12:47:55;;;;;;;1.50;1.00;;;11.60;98.20;;;;;;6135036;23;20886;-82
2024/03/12 12:50:52;;;;;;;1.50;1.00;;;11.50;98.20;;;;;;6161988;23;20480;-83
2024/03/12 12:53:31;;;;;;;1.53;1.00;;;11.40;98.20;;;;;;6105529;23;20447;-83
2024/03/12 12:56:01;;;;;;;1.50;1.10;;;11.30;98.20;;;;;;6138084;23;20426;-83
2024/03/12 12:58:31;;;;;;;3.40;1.93;;;11.10;98.20;;;;;;6158541;23;20846;-83
2024/03/12 13:01:17;;;;;;;1.50;1.00;;;11.10;98.20;;;;;;6135986;23;20432;-82
2024/03/12 13:03:53;;;;;;;1.50;1.00;;;10.90;98.20;;;;;;6158801;23;20442;-82
2024/03/12 13:06:22;;;;;;;1.50;1.10;;;10.80;98.20;;;;;;6135496;23;21008;-83
2024/03/12 13:08:51;;;;;;;1.53;1.10;;;10.80;98.20;;;;;;6158492;23;20428;-82
2024/03/12 13:11:24;;;;;;;1.50;1.10;;;10.80;98.20;;;;;;6133499;23;20483;-83
2024/03/12 13:13:51;;;;;;;1.50;1.10;;;10.80;98.20;;;;;;6148670;23;20424;-81
2024/03/12 13:16:22;;;;;;;1.50;1.00;;;10.90;98.20;;;;;;6142365;23;20536;-82
2024/03/12 13:18:55;;;;;;;1.57;1.00;;;10.90;98.20;;;;;;6159887;23;20420;-82
2024/03/12 13:24:52;;;;;;;1.53;1.10;;;11.10;98.20;;;;;;6180216;23;21126;-83
2024/03/12 13:27:22;;;;;;;1.50;1.10;;;11.20;98.20;;;;;;6167865;23;20459;-82
2024/03/12 13:29:55;;;;;;;1.50;1.00;;;11.20;98.20;;;;;;6189499;23;20447;-84
2024/03/12 13:32:45;;;;;;;1.50;1.00;;;11.20;98.20;;;;;;6166883;23;20774;-84
2024/03/12 13:38:42;;;;;;;1.60;1.30;;;11.20;98.20;;;;;;6019411;23;20450;-83
2024/03/12 13:41:10;;;;;;;1.50;1.10;;;11.20;98.20;;;;;;6170760;23;21281;-82
2024/03/12 13:43:38;;;;;;;1.50;1.10;;;11.20;98.20;;;;;;6189792;23;20802;-82
2024/03/12 13:46:14;;;;;;;1.50;1.10;;;11.20;98.20;;;;;;6164106;23;20427;-84
2024/03/12 13:48:57;;;;;;;1.50;1.00;;;11.20;98.20;;;;;;6179686;23;20399;-82
2024/03/12 13:54:40;;;;;;;1.53;1.00;;;11.10;98.20;;;;;;6148426;23;20456;-82
2024/03/12 13:57:11;;;;;;;1.50;1.00;;;11.00;98.20;;;;;;6137822;23;20453;-83
2024/03/12 13:59:39;;;;;;;1.50;1.10;;;11.00;98.20;;;;;;6158492;23;20437;-80
2024/03/12 14:02:29;;;;;;;1.60;1.40;;;11.00;98.20;;;;;;6134249;23;20507;-81
2024/03/12 14:04:56;;;;;;;1.50;1.10;;;10.90;98.20;;;;;;6149836;23;20402;-81
2024/03/12 14:07:24;;;;;;;1.50;1.00;;;10.90;98.20;;;;;;6136551;23;20780;-83
2024/03/12 14:10:10;;;;;;;2.80;2.60;;;10.90;98.20;;;;;;6159392;23;20441;-83
2024/03/12 14:12:45;;;;;;;1.50;1.10;;;10.90;98.20;;;;;;6135858;23;20445;-83